Time;durP1;ratioP1;P1;durP2;ratioP2;P2;SDS_P1;SDS_P2;PMS_P1;PMS_P2;Temp;Humidity;BMP_temperature;BMP_pressure;BME280_temperature;BME280_humidity;BME280_pressure;Samples;Min_cycle;Max_cycle;Signal;HPM_P1;HPM_P2
2022/04/24 00:02:23;;;;;;;20.67;17.33;;;10.60;31.60;;;;;;5035365;28;20213;-69
2022/04/24 00:04:49;;;;;;;18.83;14.07;;;10.50;31.40;;;;;;5035207;28;20582;-68
2022/04/24 00:07:14;;;;;;;17.23;15.30;;;10.50;31.40;;;;;;5034720;28;20439;-69
2022/04/24 00:09:40;;;;;;;18.57;15.47;;;10.50;31.40;;;;;;5034865;28;20476;-69
2022/04/24 00:12:06;;;;;;;18.87;14.90;;;10.60;31.50;;;;;;5033797;28;20221;-69
2022/04/24 00:14:32;;;;;;;24.47;15.83;;;10.60;30.80;;;;;;5035156;28;20177;-69
2022/04/24 00:16:58;;;;;;;18.70;16.90;;;10.50;31.40;;;;;;5033435;28;20436;-69
2022/04/24 00:19:23;;;;;;;15.30;13.77;;;10.50;31.40;;;;;;5033243;28;20209;-68
2022/04/24 00:21:49;;;;;;;20.03;13.43;;;10.60;31.50;;;;;;5034579;28;20202;-69
2022/04/24 00:24:15;;;;;;;17.63;14.30;;;10.60;31.50;;;;;;5034788;28;20648;-69
2022/04/24 00:26:40;;;;;;;23.37;16.07;;;10.60;31.50;;;;;;5034563;28;20444;-69
2022/04/24 00:29:06;;;;;;;15.93;14.10;;;10.40;31.90;;;;;;5034290;28;20202;-69
2022/04/24 00:31:32;;;;;;;20.77;16.13;;;10.40;32.60;;;;;;5034495;28;20179;-69
2022/04/24 00:33:58;;;;;;;13.20;12.00;;;10.40;32.90;;;;;;5034583;28;20459;-69
2022/04/24 00:36:24;;;;;;;13.90;12.47;;;10.40;32.30;;;;;;5034316;28;20947;-68
2022/04/24 00:38:49;;;;;;;17.17;13.40;;;10.40;31.70;;;;;;5034352;28;20520;-69
2022/04/24 00:41:15;;;;;;;17.13;14.70;;;10.50;31.50;;;;;;5034319;28;20168;-69
2022/04/24 00:43:48;;;;;;;20.07;15.87;;;10.50;31.40;;;;;;5033218;28;20172;-68
2022/04/24 00:46:22;;;;;;;17.00;13.73;;;10.50;31.60;;;;;;5034095;28;20198;-69
2022/04/24 00:48:48;;;;;;;19.70;16.23;;;10.30;32.90;;;;;;5034004;28;20418;-69
2022/04/24 00:51:13;;;;;;;16.80;14.57;;;10.40;32.50;;;;;;5032898;28;20413;-68
2022/04/24 00:53:39;;;;;;;17.50;14.17;;;10.40;32.10;;;;;;5034028;28;20542;-68
2022/04/24 00:56:07;;;;;;;17.30;14.40;;;10.40;31.90;;;;;;5033366;28;20220;-68
2022/04/24 00:58:33;;;;;;;16.47;13.30;;;10.50;31.40;;;;;;5033976;28;20402;-68
2022/04/24 01:01:00;;;;;;;15.73;14.20;;;10.50;31.40;;;;;;5034013;28;20894;-68
2022/04/24 01:03:26;;;;;;;16.10;13.90;;;10.50;31.40;;;;;;5033937;28;20406;-69
2022/04/24 01:05:52;;;;;;;18.27;13.10;;;10.60;31.50;;;;;;5033702;28;20426;-69
2022/04/24 01:08:17;;;;;;;20.23;13.80;;;10.60;31.50;;;;;;5033777;28;20306;-69
2022/04/24 01:10:43;;;;;;;18.10;15.10;;;10.50;31.50;;;;;;5033751;28;20559;-69
2022/04/24 01:13:10;;;;;;;17.10;12.97;;;10.60;31.70;;;;;;5033735;28;20333;-69
2022/04/24 01:15:36;;;;;;;16.80;14.60;;;10.60;31.50;;;;;;5033596;28;20307;-69
2022/04/24 01:18:01;;;;;;;17.70;15.90;;;10.60;31.60;;;;;;5033578;28;20456;-69
2022/04/24 01:20:27;;;;;;;17.47;15.63;;;10.60;31.60;;;;;;5033853;28;20516;-69
2022/04/24 01:22:52;;;;;;;13.37;12.17;;;10.70;31.50;;;;;;5033807;28;20259;-69
2022/04/24 01:25:18;;;;;;;15.67;14.13;;;10.70;31.50;;;;;;5033651;28;20190;-70
2022/04/24 01:27:44;;;;;;;19.90;14.60;;;10.70;31.60;;;;;;5033281;28;20280;-69
2022/04/24 01:30:10;;;;;;;16.37;14.67;;;10.80;31.10;;;;;;5033406;28;20204;-69
2022/04/24 01:32:35;;;;;;;15.63;14.00;;;10.80;30.70;;;;;;5033476;28;20197;-69
2022/04/24 01:35:02;;;;;;;19.20;14.67;;;10.90;30.40;;;;;;5033478;28;20421;-69
2022/04/24 01:37:28;;;;;;;14.70;12.10;;;11.00;30.40;;;;;;5033253;28;20602;-69
2022/04/24 01:39:54;;;;;;;16.70;14.90;;;11.10;30.10;;;;;;5033247;28;20434;-69
2022/04/24 01:42:19;;;;;;;23.67;14.57;;;11.00;30.40;;;;;;5033322;28;20204;-69
2022/04/24 01:44:45;;;;;;;15.03;13.57;;;11.00;30.90;;;;;;5033113;28;20473;-69
2022/04/24 01:47:11;;;;;;;13.77;12.47;;;11.00;31.20;;;;;;5031640;28;20204;-69
2022/04/24 01:49:36;;;;;;;16.03;14.43;;;11.00;31.90;;;;;;5032934;28;20614;-69
2022/04/24 01:52:03;;;;;;;18.40;16.47;;;11.10;31.80;;;;;;5032996;28;20175;-69
2022/04/24 01:54:29;;;;;;;14.97;13.40;;;11.10;31.90;;;;;;5031706;28;20176;-69
2022/04/24 01:56:54;;;;;;;15.10;12.87;;;11.10;32.00;;;;;;5061832;22;20495;-70
2022/04/24 01:59:20;;;;;;;17.27;13.73;;;11.20;32.20;;;;;;5072690;28;20180;-69
2022/04/24 02:01:45;;;;;;;14.13;12.67;;;11.10;33.60;;;;;;5072932;28;20235;-70
2022/04/24 02:04:11;;;;;;;16.43;14.77;;;11.10;33.60;;;;;;5073181;28;20177;-70
2022/04/24 02:06:37;;;;;;;17.10;15.03;;;11.10;33.90;;;;;;5071796;28;20204;-69
2022/04/24 02:09:02;;;;;;;22.20;17.27;;;11.20;33.70;;;;;;5072204;28;20213;-69
2022/04/24 02:11:28;;;;;;;16.93;15.13;;;11.10;35.30;;;;;;5072586;28;20195;-69
2022/04/24 02:13:54;;;;;;;15.70;14.00;;;11.10;35.60;;;;;;5072566;28;20200;-69
2022/04/24 02:16:19;;;;;;;18.80;15.43;;;11.10;35.40;;;;;;5072360;28;20195;-69
2022/04/24 02:18:45;;;;;;;14.27;12.87;;;11.10;35.80;;;;;;5072051;28;20462;-69
2022/04/24 02:21:11;;;;;;;21.37;15.07;;;11.10;36.40;;;;;;5072458;28;20205;-69
2022/04/24 02:23:36;;;;;;;18.57;16.27;;;11.10;36.10;;;;;;5072408;28;20178;-69
2022/04/24 02:26:02;;;;;;;21.60;14.00;;;11.00;35.40;;;;;;5072301;28;20171;-69
2022/04/24 02:28:28;;;;;;;20.77;15.40;;;10.90;37.00;;;;;;5072126;28;20515;-69
2022/04/24 02:30:53;;;;;;;18.63;14.57;;;10.80;36.90;;;;;;5072198;28;20211;-69
2022/04/24 02:33:19;;;;;;;16.80;14.03;;;10.90;37.40;;;;;;5072202;28;20162;-69
2022/04/24 02:35:44;;;;;;;19.17;15.67;;;10.90;37.00;;;;;;5070897;28;20545;-70
2022/04/24 02:38:10;;;;;;;16.23;14.37;;;11.00;37.00;;;;;;5071782;28;20195;-69
2022/04/24 02:40:35;;;;;;;19.80;15.37;;;11.00;37.00;;;;;;5072108;28;20192;-69
2022/04/24 02:43:01;;;;;;;20.67;16.40;;;11.00;38.70;;;;;;5072223;28;20260;-69
2022/04/24 02:45:27;;;;;;;16.10;13.80;;;11.10;37.90;;;;;;5072244;28;20175;-70
2022/04/24 02:47:52;;;;;;;16.67;13.67;;;11.00;38.20;;;;;;5071620;28;20278;-69
2022/04/24 02:50:18;;;;;;;20.70;16.50;;;11.00;37.90;;;;;;5070673;28;20210;-69
2022/04/24 02:52:53;;;;;;;21.30;15.07;;;11.00;38.70;;;;;;5071897;28;20172;-69
2022/04/24 02:55:20;;;;;;;18.70;15.93;;;10.90;39.70;;;;;;5072100;28;20166;-68
2022/04/24 02:57:46;;;;;;;23.37;18.47;;;10.90;40.40;;;;;;5071469;28;20453;-68
2022/04/24 03:00:14;;;;;;;19.13;15.37;;;11.00;40.40;;;;;;5071957;28;20416;-67
2022/04/24 03:02:43;;;;;;;22.47;17.33;;;11.00;40.30;;;;;;5071768;28;20934;-68
2022/04/24 03:05:11;;;;;;;18.23;15.60;;;11.00;40.70;;;;;;5071799;28;20429;-68
2022/04/24 03:07:37;;;;;;;21.33;15.20;;;11.00;40.40;;;;;;5071672;28;20475;-68
2022/04/24 03:10:03;;;;;;;23.80;15.70;;;11.10;39.70;;;;;;5071682;28;21114;-68
2022/04/24 03:12:29;;;;;;;20.87;17.00;;;11.00;39.40;;;;;;5071889;28;20172;-68
2022/04/24 03:14:55;;;;;;;19.17;15.67;;;11.10;39.10;;;;;;5071969;28;20407;-68
2022/04/24 03:17:21;;;;;;;23.87;16.83;;;11.10;39.00;;;;;;5071767;28;20831;-67
2022/04/24 03:19:46;;;;;;;22.37;17.07;;;11.10;38.80;;;;;;5075922;28;20187;-68
2022/04/24 03:22:12;;;;;;;20.03;15.37;;;11.10;38.60;;;;;;5075885;28;20256;-68
2022/04/24 03:24:37;;;;;;;16.70;13.87;;;11.10;39.00;;;;;;5075871;28;20260;-68
2022/04/24 03:27:03;;;;;;;16.50;14.83;;;11.10;39.30;;;;;;5075630;28;20263;-68
2022/04/24 03:29:29;;;;;;;18.27;16.30;;;11.10;39.90;;;;;;5075471;28;20697;-68
2022/04/24 03:31:54;;;;;;;20.80;15.37;;;11.00;40.30;;;;;;5075612;28;20501;-68
2022/04/24 03:34:20;;;;;;;19.33;15.10;;;11.00;40.00;;;;;;5075551;28;20501;-68
2022/04/24 03:36:46;;;;;;;25.07;17.70;;;10.90;40.50;;;;;;5075392;28;20206;-68
2022/04/24 03:39:12;;;;;;;20.23;16.10;;;10.80;41.10;;;;;;5075505;28;20172;-68
2022/04/24 03:41:37;;;;;;;27.90;21.57;;;10.80;42.00;;;;;;5075406;28;20755;-68
2022/04/24 03:44:04;;;;;;;24.43;19.60;;;10.80;42.00;;;;;;5075452;28;20657;-68
2022/04/24 03:46:30;;;;;;;22.00;16.77;;;10.70;43.10;;;;;;5075334;28;20199;-68
2022/04/24 03:48:55;;;;;;;20.47;16.73;;;10.80;43.70;;;;;;5075165;28;21036;-68
2022/04/24 03:51:21;;;;;;;21.57;16.10;;;10.90;42.90;;;;;;5075271;28;20174;-68
2022/04/24 03:53:47;;;;;;;17.93;15.67;;;11.00;42.80;;;;;;5075208;28;20173;-69
2022/04/24 03:56:12;;;;;;;23.10;18.27;;;11.10;42.30;;;;;;5075268;28;20676;-68
2022/04/24 03:58:38;;;;;;;22.00;15.30;;;11.20;42.40;;;;;;5075009;28;20187;-69
2022/04/24 04:01:03;;;;;;;24.23;17.13;;;11.30;42.00;;;;;;5075051;28;20707;-69
2022/04/24 04:03:29;;;;;;;21.13;18.10;;;11.30;41.60;;;;;;5074948;28;20540;-69
2022/04/24 04:05:54;;;;;;;18.63;16.20;;;11.20;42.40;;;;;;5075005;28;20536;-68
2022/04/24 04:08:20;;;;;;;24.70;18.23;;;11.10;42.30;;;;;;5074794;28;20641;-69
2022/04/24 04:10:45;;;;;;;19.00;16.60;;;11.10;42.30;;;;;;5075062;28;20202;-69
2022/04/24 04:13:11;;;;;;;14.93;10.43;;;10.90;42.10;;;;;;5074899;28;20180;-69
2022/04/24 04:15:37;;;;;;;13.20;7.63;;;10.80;40.60;;;;;;5074913;28;20680;-68
2022/04/24 04:18:03;;;;;;;6.47;5.80;;;10.60;39.20;;;;;;5074365;28;20431;-68
2022/04/24 04:20:28;;;;;;;6.00;4.97;;;10.50;40.00;;;;;;5074688;28;20192;-68
2022/04/24 04:22:55;;;;;;;6.43;4.13;;;10.30;39.20;;;;;;5074744;28;20174;-68
2022/04/24 04:25:23;;;;;;;4.53;3.33;;;10.20;37.70;;;;;;5074705;28;20175;-69
2022/04/24 04:27:50;;;;;;;2.70;2.50;;;10.00;37.00;;;;;;5074267;28;20455;-68
2022/04/24 04:30:15;;;;;;;2.90;2.70;;;9.80;38.00;;;;;;5073707;28;20448;-68
2022/04/24 04:32:41;;;;;;;2.40;2.20;;;9.70;36.60;;;;;;5074400;28;20937;-69
2022/04/24 04:35:09;;;;;;;2.83;2.60;;;9.70;38.60;;;;;;5074464;28;20208;-69
2022/04/24 04:37:36;;;;;;;2.50;2.20;;;9.60;37.50;;;;;;5072852;28;20571;-68
2022/04/24 04:40:03;;;;;;;3.00;2.40;;;9.60;37.30;;;;;;5074489;28;20414;-69
2022/04/24 04:42:29;;;;;;;2.80;2.60;;;9.60;38.30;;;;;;5074270;28;20412;-68
2022/04/24 04:44:56;;;;;;;2.17;2.00;;;9.50;36.70;;;;;;5074299;28;20412;-69
2022/04/24 04:47:21;;;;;;;2.77;2.57;;;9.50;38.00;;;;;;5073913;28;20202;-70
2022/04/24 04:49:47;;;;;;;4.40;2.70;;;9.50;38.20;;;;;;5074188;28;20957;-70
2022/04/24 04:52:12;;;;;;;3.43;2.07;;;9.40;38.30;;;;;;5074162;28;20167;-69
2022/04/24 04:54:40;;;;;;;2.63;2.43;;;9.40;37.60;;;;;;5074192;28;20172;-70
2022/04/24 04:57:06;;;;;;;2.30;2.20;;;9.40;36.60;;;;;;5073898;28;20209;-70
2022/04/24 04:59:31;;;;;;;2.17;1.97;;;9.40;37.90;;;;;;5073775;28;20417;-70
2022/04/24 05:01:57;;;;;;;2.47;1.87;;;9.40;38.00;;;;;;5073946;28;20274;-70
2022/04/24 05:04:22;;;;;;;2.20;2.10;;;9.40;38.50;;;;;;5074222;28;20253;-70
2022/04/24 05:06:48;;;;;;;2.20;2.00;;;9.30;38.10;;;;;;5073646;28;20203;-71
2022/04/24 05:09:13;;;;;;;2.20;2.10;;;9.30;38.30;;;;;;5073364;28;20225;-69
2022/04/24 05:11:39;;;;;;;2.00;1.90;;;9.40;38.70;;;;;;5074170;28;20571;-69
2022/04/24 05:14:05;;;;;;;2.03;1.90;;;9.40;38.50;;;;;;5073604;28;20200;-70
2022/04/24 05:16:31;;;;;;;1.90;1.80;;;9.30;39.60;;;;;;5073516;28;20190;-70
2022/04/24 05:18:58;;;;;;;4.33;2.00;;;9.30;40.10;;;;;;5073277;28;20971;-70
2022/04/24 05:21:24;;;;;;;1.70;1.60;;;9.30;39.70;;;;;;5073518;28;20171;-70
2022/04/24 05:23:52;;;;;;;1.90;1.80;;;9.30;40.40;;;;;;5073330;28;20928;-70
2022/04/24 05:26:17;;;;;;;1.50;1.40;;;9.30;40.90;;;;;;5073410;28;20561;-69
2022/04/24 05:28:43;;;;;;;1.80;1.70;;;9.40;40.70;;;;;;5071703;28;20424;-69
2022/04/24 05:31:08;;;;;;;2.03;1.80;;;9.30;40.40;;;;;;5073354;28;20701;-70
2022/04/24 05:33:34;;;;;;;1.63;1.53;;;9.40;41.10;;;;;;5072075;28;20177;-69
2022/04/24 05:35:59;;;;;;;1.60;1.50;;;9.40;41.00;;;;;;5073200;28;20208;-67
2022/04/24 05:38:25;;;;;;;1.73;1.63;;;9.40;40.30;;;;;;5072968;28;20305;-66
2022/04/24 05:40:50;;;;;;;1.83;1.67;;;9.40;40.10;;;;;;5072777;28;20209;-69
2022/04/24 05:43:16;;;;;;;1.50;1.40;;;9.40;39.60;;;;;;5065313;28;20711;-69
2022/04/24 05:45:41;;;;;;;1.67;1.57;;;9.30;39.80;;;;;;5052872;28;20194;-69
2022/04/24 05:48:07;;;;;;;1.73;1.63;;;9.30;40.40;;;;;;5051258;28;20565;-69
2022/04/24 05:50:33;;;;;;;1.40;1.30;;;9.30;40.40;;;;;;5052925;28;20223;-69
2022/04/24 05:52:59;;;;;;;2.20;2.00;;;9.30;40.50;;;;;;5052900;28;21158;-68
2022/04/24 05:55:25;;;;;;;1.80;1.70;;;9.30;40.50;;;;;;5053025;28;20172;-67
2022/04/24 05:57:52;;;;;;;1.77;1.67;;;9.20;39.80;;;;;;5052275;28;20819;-67
2022/04/24 06:00:18;;;;;;;1.93;1.70;;;9.30;40.00;;;;;;5051727;28;20836;-67
2022/04/24 06:02:44;;;;;;;2.20;1.60;;;9.30;40.30;;;;;;5051503;28;20803;-67
2022/04/24 06:05:13;;;;;;;1.77;1.67;;;9.30;40.10;;;;;;5052533;28;20424;-67
2022/04/24 06:07:40;;;;;;;3.93;1.73;;;9.30;40.40;;;;;;5052278;28;20210;-68
2022/04/24 06:10:06;;;;;;;1.63;1.53;;;9.30;39.80;;;;;;5052591;28;20454;-68
2022/04/24 06:12:42;;;;;;;1.90;1.70;;;9.30;39.70;;;;;;5052566;28;20786;-67
2022/04/24 06:15:13;;;;;;;2.43;1.67;;;9.30;39.40;;;;;;5052577;28;20444;-68
2022/04/24 06:17:39;;;;;;;3.20;2.20;;;9.30;39.10;;;;;;5052275;28;20857;-68
2022/04/24 06:20:05;;;;;;;2.17;1.77;;;9.30;39.40;;;;;;5052600;28;20510;-68
2022/04/24 06:22:41;;;;;;;1.90;1.80;;;9.40;39.30;;;;;;5052494;28;20272;-67
2022/04/24 06:25:07;;;;;;;2.33;2.13;;;9.30;39.50;;;;;;5052382;28;20420;-67
2022/04/24 06:27:32;;;;;;;2.27;2.07;;;9.30;39.50;;;;;;5051899;28;20433;-67
2022/04/24 06:29:58;;;;;;;2.20;1.70;;;9.30;39.40;;;;;;5052357;28;20203;-69
2022/04/24 06:32:28;;;;;;;1.90;1.50;;;9.30;39.40;;;;;;5052399;28;20177;-69
2022/04/24 06:34:53;;;;;;;1.57;1.47;;;9.30;38.80;;;;;;5052325;28;20255;-70
2022/04/24 06:37:19;;;;;;;1.90;1.57;;;9.40;39.00;;;;;;5050786;28;20573;-67
2022/04/24 06:39:45;;;;;;;1.80;1.40;;;9.40;39.40;;;;;;5052213;28;20262;-68
2022/04/24 06:42:10;;;;;;;1.77;1.67;;;9.40;38.50;;;;;;5052211;28;20444;-68
2022/04/24 06:44:36;;;;;;;2.40;1.77;;;9.40;38.10;;;;;;5052039;28;20237;-66
2022/04/24 06:47:02;;;;;;;1.60;1.40;;;9.30;38.70;;;;;;5048681;28;20208;-66
2022/04/24 06:49:28;;;;;;;2.03;1.60;;;9.40;38.20;;;;;;5048022;28;20199;-66
2022/04/24 06:51:53;;;;;;;2.10;1.90;;;9.20;39.40;;;;;;5062061;28;20437;-66
2022/04/24 06:54:19;;;;;;;1.50;1.40;;;9.30;39.40;;;;;;5067134;28;20184;-66
2022/04/24 06:56:44;;;;;;;2.10;1.20;;;9.20;39.60;;;;;;5059669;28;20304;-68
2022/04/24 06:59:10;;;;;;;4.23;1.97;;;9.20;40.10;;;;;;5047104;28;20692;-68
2022/04/24 07:01:36;;;;;;;1.83;1.47;;;9.10;39.30;;;;;;5047667;28;20182;-66
2022/04/24 07:04:01;;;;;;;1.40;1.20;;;9.20;39.60;;;;;;5048045;28;20684;-66
2022/04/24 07:06:27;;;;;;;2.30;1.50;;;9.00;39.10;;;;;;5059353;28;20239;-66
2022/04/24 07:08:52;;;;;;;1.30;1.20;;;8.90;41.30;;;;;;5067321;28;20199;-66
2022/04/24 07:11:18;;;;;;;1.73;1.20;;;9.10;40.70;;;;;;5067248;28;20212;-66
2022/04/24 07:13:44;;;;;;;2.13;1.80;;;9.20;40.10;;;;;;5067239;28;20194;-66
2022/04/24 07:16:10;;;;;;;3.20;2.20;;;9.30;38.00;;;;;;5047628;28;20199;-66
2022/04/24 07:18:35;;;;;;;1.93;1.70;;;9.40;36.60;;;;;;5044803;28;20433;-66
2022/04/24 07:21:02;;;;;;;2.07;1.33;;;9.40;37.50;;;;;;5046270;28;20680;-66
2022/04/24 07:23:28;;;;;;;1.87;1.77;;;9.40;39.10;;;;;;5053343;28;20263;-68
2022/04/24 07:25:54;;;;;;;1.83;1.73;;;9.50;37.80;;;;;;5052050;28;21329;-68
2022/04/24 07:28:20;;;;;;;1.70;1.60;;;9.60;36.60;;;;;;5065267;28;20519;-67
2022/04/24 07:30:45;;;;;;;1.70;1.60;;;9.60;36.80;;;;;;5067345;28;20224;-67
2022/04/24 07:33:11;;;;;;;2.20;2.10;;;9.50;36.10;;;;;;5067172;28;20623;-67
2022/04/24 07:35:38;;;;;;;7.43;4.63;;;9.60;36.80;;;;;;5058669;28;20475;-67
2022/04/24 07:38:04;;;;;;;2.80;2.10;;;9.70;36.90;;;;;;5047713;28;20503;-67
2022/04/24 07:40:31;;;;;;;1.70;1.60;;;9.70;36.90;;;;;;5045189;28;20438;-66
2022/04/24 07:43:02;;;;;;;2.63;2.20;;;9.70;37.40;;;;;;5047786;28;20215;-66
2022/04/24 07:45:43;;;;;;;2.43;2.10;;;9.80;36.90;;;;;;5046188;28;20433;-67
2022/04/24 07:48:09;;;;;;;;;;;9.90;36.60;;;;;;5047926;28;20659;-68
2022/04/24 07:50:39;;;;;;;2.60;2.40;;;10.00;35.50;;;;;;5046250;28;20394;-71
2022/04/24 07:53:05;;;;;;;2.80;2.60;;;10.00;35.40;;;;;;5045743;28;20184;-70
2022/04/24 07:55:31;;;;;;;3.20;3.00;;;10.10;34.10;;;;;;5047313;28;20414;-69
2022/04/24 07:57:58;;;;;;;2.90;2.70;;;10.20;33.60;;;;;;5060347;22;20500;-68
2022/04/24 08:00:25;;;;;;;3.27;3.07;;;10.20;33.70;;;;;;5054368;28;21008;-68
2022/04/24 08:02:57;;;;;;;2.87;2.67;;;10.00;33.60;;;;;;5051604;28;20630;-68
2022/04/24 08:05:28;;;;;;;3.00;2.80;;;10.00;34.50;;;;;;5065190;28;20434;-68
2022/04/24 08:07:55;;;;;;;2.90;2.70;;;10.10;34.10;;;;;;5069163;28;20455;-68
2022/04/24 08:10:22;;;;;;;3.17;3.00;;;10.20;33.30;;;;;;5069564;28;20619;-68
2022/04/24 08:12:48;;;;;;;3.37;3.17;;;10.30;33.00;;;;;;5070582;28;20494;-68
2022/04/24 08:15:15;;;;;;;3.23;3.03;;;10.30;32.40;;;;;;5069193;28;20827;-68
2022/04/24 08:17:40;;;;;;;3.27;3.07;;;10.30;32.60;;;;;;5047441;28;20440;-68
2022/04/24 08:20:08;;;;;;;3.43;3.23;;;10.30;33.10;;;;;;5048632;28;20768;-68
2022/04/24 08:22:42;;;;;;;3.40;3.20;;;10.30;31.40;;;;;;5041831;28;20189;-68
2022/04/24 08:25:09;;;;;;;3.00;2.80;;;10.30;32.80;;;;;;5028819;28;20545;-68
2022/04/24 08:27:36;;;;;;;3.47;3.27;;;10.40;32.20;;;;;;5051024;28;20430;-68
2022/04/24 08:30:04;;;;;;;3.47;3.27;;;10.50;31.40;;;;;;5047519;28;20471;-68
2022/04/24 08:32:29;;;;;;;3.73;3.50;;;10.60;31.60;;;;;;5047888;28;20419;-68
2022/04/24 08:34:56;;;;;;;4.80;4.50;;;10.70;31.50;;;;;;5047682;28;20434;-68
2022/04/24 08:37:23;;;;;;;4.20;4.00;;;10.70;30.90;;;;;;5029960;28;20201;-68
2022/04/24 08:39:49;;;;;;;4.00;3.80;;;10.70;30.40;;;;;;5036808;28;20530;-68
2022/04/24 08:42:18;;;;;;;3.80;3.60;;;10.70;30.70;;;;;;5052288;28;20994;-68
2022/04/24 08:44:46;;;;;;;3.67;3.47;;;10.80;30.80;;;;;;5045947;28;20192;-68
2022/04/24 08:47:14;;;;;;;4.40;4.00;;;10.80;31.60;;;;;;5049697;28;20450;-68
2022/04/24 08:49:40;;;;;;;4.10;3.90;;;10.80;30.90;;;;;;5046172;28;20816;-68
2022/04/24 08:52:07;;;;;;;3.97;3.77;;;10.90;31.20;;;;;;5045115;28;20430;-68
2022/04/24 08:54:33;;;;;;;28.30;25.30;;;11.00;31.40;;;;;;5030390;28;20431;-68
2022/04/24 08:56:59;;;;;;;17.67;15.90;;;11.10;30.90;;;;;;5049555;28;20444;-68
2022/04/24 08:59:24;;;;;;;6.03;5.20;;;11.20;30.90;;;;;;5050008;28;20476;-67
2022/04/24 09:01:51;;;;;;;4.67;4.47;;;11.10;29.80;;;;;;5037280;28;20587;-68
2022/04/24 09:04:18;;;;;;;6.23;5.83;;;11.20;30.60;;;;;;5036785;28;20571;-68
2022/04/24 09:06:57;;;;;;;4.83;4.60;;;11.20;29.70;;;;;;5048077;28;20419;-67
2022/04/24 09:09:23;;;;;;;4.90;4.70;;;11.30;29.90;;;;;;5043503;28;20511;-68
2022/04/24 09:11:49;;;;;;;4.50;4.30;;;11.40;29.30;;;;;;5029815;28;20954;-67
2022/04/24 09:14:15;;;;;;;4.53;4.23;;;11.50;29.90;;;;;;5030427;28;20418;-67
2022/04/24 09:16:53;;;;;;;5.47;5.03;;;11.50;29.80;;;;;;5029231;28;20261;-68
2022/04/24 09:19:20;;;;;;;5.00;4.70;;;11.60;29.80;;;;;;5039123;28;20212;-68
2022/04/24 09:21:50;;;;;;;4.70;4.50;;;11.70;29.50;;;;;;5050065;28;20954;-68
2022/04/24 09:24:16;;;;;;;4.70;4.40;;;11.60;29.50;;;;;;5049708;28;20816;-69
2022/04/24 09:26:53;;;;;;;4.10;3.70;;;11.70;29.60;;;;;;5053444;28;20413;-68
2022/04/24 09:29:18;;;;;;;4.90;4.50;;;11.70;29.80;;;;;;5050311;28;20556;-68
2022/04/24 09:31:46;;;;;;;4.90;4.70;;;11.80;29.30;;;;;;5053490;28;20490;-68
2022/04/24 09:34:11;;;;;;;5.13;4.87;;;11.80;28.90;;;;;;5052930;28;20599;-69
2022/04/24 09:36:37;;;;;;;4.77;4.53;;;11.80;29.10;;;;;;5053220;28;20409;-68
2022/04/24 09:39:02;;;;;;;4.70;4.40;;;11.90;29.50;;;;;;5043928;28;20181;-68
2022/04/24 09:41:28;;;;;;;3.80;3.60;;;11.90;29.10;;;;;;5033406;28;20178;-68
2022/04/24 09:43:53;;;;;;;4.80;4.60;;;12.00;28.80;;;;;;5033149;28;20182;-68
2022/04/24 09:46:29;;;;;;;4.50;4.30;;;12.10;28.70;;;;;;5033127;28;20254;-68
2022/04/24 09:48:58;;;;;;;8.60;4.43;;;12.10;28.20;;;;;;5041755;28;20202;-68
2022/04/24 09:51:24;;;;;;;5.20;4.90;;;12.10;28.20;;;;;;5052494;28;20413;-67
2022/04/24 09:53:52;;;;;;;5.20;5.00;;;12.20;27.50;;;;;;5034214;28;20498;-67
2022/04/24 09:56:19;;;;;;;4.83;4.63;;;12.20;27.50;;;;;;5032718;28;20492;-67
2022/04/24 09:58:46;;;;;;;5.17;4.97;;;12.10;28.20;;;;;;5041750;28;20510;-68
2022/04/24 10:01:12;;;;;;;4.93;4.63;;;12.10;27.70;;;;;;5042173;28;20512;-68
2022/04/24 10:03:38;;;;;;;4.60;4.30;;;12.00;28.20;;;;;;5032783;28;20866;-67
2022/04/24 10:06:07;;;;;;;4.53;4.33;;;12.00;28.10;;;;;;5032569;28;20406;-67
2022/04/24 10:08:36;;;;;;;4.87;4.67;;;12.00;28.10;;;;;;5031829;28;20428;-67
2022/04/24 10:11:06;;;;;;;4.40;4.20;;;12.10;28.20;;;;;;5039220;28;20526;-67
2022/04/24 10:13:36;;;;;;;4.47;4.27;;;12.10;28.80;;;;;;5052647;28;20695;-67
2022/04/24 10:16:25;;;;;;;4.40;4.10;;;12.10;28.60;;;;;;5052539;28;20416;-67
2022/04/24 10:19:26;;;;;;;4.97;4.63;;;12.20;28.70;;;;;;5037142;28;20958;-67
2022/04/24 10:22:03;;;;;;;4.50;4.30;;;12.20;28.30;;;;;;5031805;28;20927;-69
2022/04/24 10:24:43;;;;;;;4.57;4.27;;;12.30;28.20;;;;;;5032591;28;20416;-69
2022/04/24 10:27:11;;;;;;;4.90;4.63;;;12.30;28.30;;;;;;5032264;28;20426;-67
2022/04/24 10:30:00;;;;;;;4.23;4.03;;;12.40;28.40;;;;;;5052136;28;20456;-67
2022/04/24 10:32:27;;;;;;;5.60;5.30;;;12.50;28.40;;;;;;5051106;28;20426;-69
2022/04/24 10:34:53;;;;;;;4.80;4.60;;;12.60;27.70;;;;;;5052331;28;20413;-71
2022/04/24 10:37:30;;;;;;;5.40;5.20;;;12.70;27.70;;;;;;5049828;28;20505;-70
2022/04/24 10:39:58;;;;;;;5.00;4.80;;;12.80;27.60;;;;;;5031509;28;20232;-70
2022/04/24 10:42:31;;;;;;;7.20;6.80;;;12.80;27.40;;;;;;5032465;28;20422;-69
2022/04/24 10:45:04;;;;;;;5.60;5.30;;;12.80;26.60;;;;;;5032387;28;20443;-68
2022/04/24 10:48:05;;;;;;;5.87;5.57;;;12.80;27.70;;;;;;5034580;28;20445;-68
2022/04/24 10:50:30;;;;;;;5.47;5.17;;;12.80;26.70;;;;;;5051834;28;20456;-67
2022/04/24 10:52:56;;;;;;;5.00;4.80;;;12.80;27.60;;;;;;5040259;28;20418;-68
2022/04/24 10:55:29;;;;;;;6.10;5.80;;;12.90;27.70;;;;;;5032100;28;20203;-69
2022/04/24 10:58:00;;;;;;;5.70;5.40;;;13.10;27.10;;;;;;5030575;28;20297;-69
2022/04/24 11:00:34;;;;;;;4.93;4.73;;;13.00;27.90;;;;;;5031876;28;20544;-69
2022/04/24 11:03:14;;;;;;;6.03;5.73;;;13.10;27.80;;;;;;5032107;28;20919;-69
2022/04/24 11:05:52;;;;;;;6.30;5.80;;;13.20;27.40;;;;;;5035124;28;20425;-69
2022/04/24 11:08:20;;;;;;;5.70;5.40;;;13.30;26.50;;;;;;5051407;28;20428;-69
2022/04/24 11:10:48;;;;;;;5.20;5.00;;;13.50;27.20;;;;;;5051498;28;20457;-69
2022/04/24 11:13:19;;;;;;;6.00;5.70;;;13.60;27.30;;;;;;5051885;28;20463;-68
2022/04/24 11:15:50;;;;;;;6.30;6.00;;;13.70;26.70;;;;;;5047805;28;20432;-69
2022/04/24 11:18:26;;;;;;;6.23;5.93;;;13.80;26.60;;;;;;5030259;28;20446;-68
2022/04/24 11:21:01;;;;;;;6.77;6.37;;;13.70;26.70;;;;;;5030329;28;20778;-69
2022/04/24 11:23:29;;;;;;;6.90;6.50;;;13.70;26.10;;;;;;5030176;28;20509;-69
2022/04/24 11:25:56;;;;;;;7.27;6.97;;;14.00;26.50;;;;;;5036134;28;20472;-69
2022/04/24 11:28:44;;;;;;;7.63;7.33;;;14.40;26.20;;;;;;5051032;28;20553;-69
2022/04/24 11:31:15;;;;;;;7.30;7.00;;;14.40;25.00;;;;;;5033680;28;20472;-69
2022/04/24 11:33:58;;;;;;;7.47;7.07;;;14.60;26.10;;;;;;5031616;28;20420;-69
2022/04/24 11:36:34;;;;;;;8.03;7.33;;;15.00;24.30;;;;;;5039883;28;20762;-69
2022/04/24 11:39:07;;;;;;;7.50;7.20;;;15.00;25.60;;;;;;5050398;28;20443;-71
2022/04/24 11:41:33;;;;;;;7.50;7.20;;;14.70;24.70;;;;;;5055734;28;20831;-69
2022/04/24 11:44:01;;;;;;;7.03;6.73;;;15.00;26.00;;;;;;5049693;28;20424;-69
2022/04/24 11:51:54;;;;;;;7.83;7.43;;;14.70;25.20;;;;;;5035762;28;20439;-69
2022/04/24 11:54:21;;;;;;;7.10;6.80;;;14.80;24.60;;;;;;5042365;28;20428;-69
2022/04/24 11:56:50;;;;;;;7.60;7.20;;;14.60;24.40;;;;;;5055225;28;20591;-68
2022/04/24 11:59:18;;;;;;;6.90;6.60;;;14.60;24.70;;;;;;5055242;28;20416;-70
2022/04/24 12:01:45;;;;;;;7.83;7.43;;;14.70;25.60;;;;;;5054178;28;20429;-69
2022/04/24 12:04:18;;;;;;;7.57;7.27;;;14.70;23.90;;;;;;5049235;28;20508;-70
2022/04/24 12:06:44;;;;;;;7.90;7.60;;;14.80;24.60;;;;;;5035056;28;20945;-70
2022/04/24 12:09:10;;;;;;;7.97;7.60;;;14.90;23.70;;;;;;5035007;28;20429;-70
2022/04/24 12:11:36;;;;;;;7.77;7.47;;;14.70;24.40;;;;;;5035594;28;20777;-69
2022/04/24 12:14:06;;;;;;;7.07;6.77;;;14.80;24.90;;;;;;5039256;28;20620;-69
2022/04/24 12:16:32;;;;;;;7.67;7.37;;;14.90;25.50;;;;;;5054717;28;20186;-69
2022/04/24 12:18:59;;;;;;;8.47;8.10;;;15.20;22.80;;;;;;5054235;28;20428;-69
2022/04/24 12:21:26;;;;;;;8.10;7.77;;;15.40;23.40;;;;;;5054628;28;20439;-69
2022/04/24 12:23:52;;;;;;;9.60;9.20;;;15.50;22.70;;;;;;5046468;28;20426;-69
2022/04/24 12:26:18;;;;;;;8.97;8.67;;;15.60;22.20;;;;;;5034527;28;20410;-69
2022/04/24 12:28:44;;;;;;;10.00;9.50;;;15.50;22.10;;;;;;5034187;28;20429;-69
2022/04/24 12:31:24;;;;;;;8.57;8.27;;;15.40;22.00;;;;;;5034828;28;20469;-69
2022/04/24 12:33:53;;;;;;;8.33;8.03;;;15.40;22.40;;;;;;5041874;28;20231;-69
2022/04/24 12:36:20;;;;;;;8.90;8.50;;;15.40;23.30;;;;;;5052995;28;20428;-68
2022/04/24 12:38:58;;;;;;;9.23;8.83;;;15.50;22.50;;;;;;5052700;28;20796;-68
2022/04/24 12:41:28;;;;;;;8.70;8.33;;;15.50;22.20;;;;;;5054501;28;20419;-68
2022/04/24 12:43:58;;;;;;;8.50;8.20;;;15.50;22.20;;;;;;5046403;28;20429;-68
2022/04/24 12:46:24;;;;;;;9.10;8.70;;;15.40;22.00;;;;;;5033024;28;20417;-69
2022/04/24 12:48:52;;;;;;;8.90;8.50;;;15.20;21.90;;;;;;5034116;28;20523;-69
2022/04/24 12:51:21;;;;;;;7.60;7.30;;;14.80;23.10;;;;;;5033658;28;20574;-69